Time;durP1;ratioP1;P1;durP2;ratioP2;P2;SDS_P1;SDS_P2;PMS_P1;PMS_P2;Temp;Humidity;BMP_temperature;BMP_pressure;BME280_temperature;BME280_humidity;BME280_pressure;Samples;Min_cycle;Max_cycle;Signal;HPM_P1;HPM_P2
2022/01/01 00:01:42;;;;;;;1999.90;999.90;;;;;;;7.50;63.80;101471.22;4924346;28;99428;-73
2022/01/01 00:04:10;;;;;;;1999.90;999.90;;;;;;;7.46;63.84;101459.56;4924673;28;97374;-74
2022/01/01 00:06:38;;;;;;;1999.90;999.90;;;;;;;7.48;63.74;101484.38;4925434;28;98119;-75
2022/01/01 00:09:07;;;;;;;1999.90;999.90;;;;;;;7.47;63.61;101479.94;4906442;28;99277;-76
2022/01/01 00:11:35;;;;;;;1999.90;999.90;;;;;;;7.46;63.89;101470.16;4931234;28;97544;-77
2022/01/01 00:14:02;;;;;;;1999.90;999.90;;;;;;;7.49;63.45;101483.53;4925367;28;96873;-74
2022/01/01 00:16:30;;;;;;;1999.90;999.90;;;;;;;7.49;63.35;101480.00;4920327;28;96886;-75
2022/01/01 00:18:58;;;;;;;1999.90;999.90;;;;;;;7.46;63.94;101490.44;4908769;28;99356;-74
2022/01/01 00:21:26;;;;;;;1999.90;999.90;;;;;;;7.48;63.80;101500.28;4923122;28;97652;-73
2022/01/01 00:23:54;;;;;;;1999.90;999.90;;;;;;;7.46;64.07;101495.75;4912539;28;97177;-73
2022/01/01 00:26:23;;;;;;;1999.90;999.90;;;;;;;7.44;63.65;101497.44;4913159;28;97237;-73
2022/01/01 00:28:50;;;;;;;1999.90;999.90;;;;;;;7.44;63.94;101494.78;4924757;28;98858;-75
2022/01/01 00:31:19;;;;;;;1999.90;999.90;;;;;;;7.42;63.90;101494.69;4925507;28;97613;-74
2022/01/01 00:33:47;;;;;;;1999.90;999.90;;;;;;;7.41;63.96;101514.09;4924348;28;99291;-76
2022/01/01 00:36:15;;;;;;;1999.90;999.90;;;;;;;7.40;64.18;101520.16;4908488;28;99665;-75
2022/01/01 00:38:43;;;;;;;1999.90;999.90;;;;;;;7.40;63.98;101511.34;4927293;28;99359;-76
2022/01/01 00:41:10;;;;;;;1999.90;999.90;;;;;;;7.45;63.91;101521.34;4909269;28;99080;-75
2022/01/01 00:43:39;;;;;;;1999.90;999.90;;;;;;;7.46;63.75;101508.97;4931182;28;96769;-72
2022/01/01 00:46:07;;;;;;;1999.90;999.90;;;;;;;7.45;63.91;101505.44;4926648;28;97541;-74
2022/01/01 00:48:35;;;;;;;1999.90;999.90;;;;;;;7.48;63.96;101504.66;4935758;28;97665;-75
2022/01/01 00:51:22;;;;;;;1999.90;999.90;;;;;;;7.48;63.63;101494.97;4931769;28;98782;-74
2022/01/01 00:53:51;;;;;;;1999.90;999.90;;;;;;;7.51;63.47;101511.00;4928362;28;97294;-74
2022/01/01 00:56:18;;;;;;;1999.90;999.90;;;;;;;7.51;63.56;101508.34;4927279;28;97280;-75
2022/01/01 00:58:47;;;;;;;1999.90;999.90;;;;;;;7.51;63.67;101516.28;4910840;28;100276;-74
2022/01/01 01:01:15;;;;;;;1999.90;999.90;;;;;;;7.51;63.83;101533.94;4905735;28;99632;-73
2022/01/01 01:03:43;;;;;;;1999.90;999.90;;;;;;;7.50;63.68;101537.41;4916611;28;97777;-74
2022/01/01 01:06:12;;;;;;;1999.90;999.90;;;;;;;7.52;63.86;101541.03;4943151;28;96761;-74
2022/01/01 01:08:41;;;;;;;1999.90;999.90;;;;;;;7.49;63.71;101544.44;4935657;28;97640;-75
2022/01/01 01:11:08;;;;;;;1999.90;999.90;;;;;;;7.52;63.28;101526.06;4944359;28;97589;-72
2022/01/01 01:13:38;;;;;;;1999.90;999.90;;;;;;;7.50;63.36;101530.38;4923934;28;96925;-74
2022/01/01 01:16:08;;;;;;;1999.90;999.90;;;;;;;7.50;63.60;101540.97;4931145;28;96881;-75
2022/01/01 01:18:36;;;;;;;1999.90;999.90;;;;;;;7.52;63.53;101539.31;4927706;28;98664;-74
2022/01/01 01:21:03;;;;;;;1999.90;999.90;;;;;;;7.58;63.37;101549.28;4933267;28;98954;-72
2022/01/01 01:23:31;;;;;;;1999.90;999.90;;;;;;;7.55;63.30;101555.31;4934509;28;96869;-74
2022/01/01 01:26:01;;;;;;;1999.90;999.90;;;;;;;7.57;63.39;101558.94;4921340;28;96786;-76
2022/01/01 01:28:31;;;;;;;1999.90;999.90;;;;;;;7.57;63.37;101569.53;4905670;28;99440;-74
2022/01/01 01:30:59;;;;;;;1999.90;999.90;;;;;;;7.57;63.33;101564.25;4908372;28;97557;-74
2022/01/01 01:33:28;;;;;;;1999.90;999.90;;;;;;;7.58;63.21;101571.38;4923459;28;96868;-74
2022/01/01 01:35:56;;;;;;;1999.90;999.90;;;;;;;7.55;63.50;101571.22;4914703;28;97414;-74
2022/01/01 01:38:24;;;;;;;1999.90;999.90;;;;;;;7.60;63.21;101569.69;4919796;28;98171;-74
2022/01/01 01:40:52;;;;;;;1999.90;999.90;;;;;;;7.59;63.34;101565.22;4896623;28;99628;-73
2022/01/01 01:43:22;;;;;;;1999.90;999.90;;;;;;;7.59;63.29;101572.25;4923534;28;97344;-74
2022/01/01 01:45:51;;;;;;;1999.90;999.90;;;;;;;7.61;63.24;101581.19;4891467;28;97430;-74
2022/01/01 01:48:19;;;;;;;1999.90;999.90;;;;;;;7.59;63.09;101581.13;4913779;28;100572;-73
2022/01/01 01:50:49;;;;;;;1999.90;999.90;;;;;;;7.57;63.30;101580.13;4920921;28;96643;-74
2022/01/01 01:53:17;;;;;;;1999.90;999.90;;;;;;;7.56;63.22;101578.34;4928485;28;96845;-73
2022/01/01 01:55:45;;;;;;;1999.90;999.90;;;;;;;7.57;63.46;101571.28;4903223;28;96837;-74
2022/01/01 01:58:13;;;;;;;1999.90;999.90;;;;;;;7.54;63.46;101571.16;4895717;28;99404;-74
2022/01/01 02:01:19;;;;;;;1999.90;999.90;;;;;;;7.56;63.36;101572.13;4928560;28;98655;-74
2022/01/01 02:03:48;;;;;;;1999.90;999.90;;;;;;;7.57;63.22;101574.84;4891090;28;96772;-74
2022/01/01 02:06:18;;;;;;;1999.90;999.90;;;;;;;7.57;63.08;101577.50;4905386;28;97176;-74
2022/01/01 02:08:49;;;;;;;1999.90;999.90;;;;;;;7.58;62.92;101573.13;4920417;28;97948;-74
2022/01/01 02:11:18;;;;;;;1999.90;999.90;;;;;;;7.58;62.93;101565.16;4912289;28;100847;-74
2022/01/01 02:14:02;;;;;;;1999.90;999.90;;;;;;;7.60;62.93;101571.44;4944340;28;96779;-74
2022/01/01 02:16:50;;;;;;;1999.90;999.90;;;;;;;7.54;63.13;101558.81;4893968;28;97030;-76
2022/01/01 02:19:23;;;;;;;1999.90;999.90;;;;;;;7.51;62.93;101566.59;4906989;28;97619;-73
2022/01/01 02:21:53;;;;;;;1999.90;999.90;;;;;;;7.55;63.21;101571.22;4926140;28;97628;-76
2022/01/01 02:24:21;;;;;;;1999.90;999.90;;;;;;;7.57;62.84;101568.63;4926287;28;96811;-76
2022/01/01 02:26:49;;;;;;;1999.90;999.90;;;;;;;7.55;62.91;101568.56;4926980;28;96668;-74
2022/01/01 02:29:17;;;;;;;1999.90;999.90;;;;;;;7.55;63.00;101565.91;4923739;28;98324;-76
2022/01/01 02:31:45;;;;;;;1999.90;999.90;;;;;;;7.54;62.96;101569.41;4913092;28;100508;-74
2022/01/01 02:34:13;;;;;;;1999.90;999.90;;;;;;;7.52;63.08;101586.97;4916531;28;97985;-74
2022/01/01 02:36:42;;;;;;;1999.90;999.90;;;;;;;7.53;62.90;101586.13;4893244;28;96858;-74
2022/01/01 02:39:13;;;;;;;1999.90;999.90;;;;;;;7.56;62.90;101595.97;4907491;28;98531;-74
2022/01/01 02:41:41;;;;;;;1999.90;999.90;;;;;;;7.56;62.88;101578.34;4908426;28;99084;-75
2022/01/01 02:44:09;;;;;;;1999.90;999.90;;;;;;;7.56;62.73;101588.94;4924430;28;97350;-75
2022/01/01 02:46:37;;;;;;;1999.90;999.90;;;;;;;7.54;62.87;101582.66;4894739;28;97201;-74
2022/01/01 02:49:06;;;;;;;1999.90;999.90;;;;;;;7.54;62.76;101589.69;4891774;28;100747;-76
2022/01/01 02:51:34;;;;;;;1999.90;999.90;;;;;;;7.50;63.03;101583.34;4927720;28;98710;-74
2022/01/01 02:54:02;;;;;;;1999.90;999.90;;;;;;;7.52;62.96;101584.34;4924786;28;96768;-74
2022/01/01 02:56:32;;;;;;;1999.90;999.90;;;;;;;7.50;62.84;101590.38;4895639;28;96831;-74
2022/01/01 02:58:59;;;;;;;1999.90;999.90;;;;;;;7.46;62.86;101588.41;4909415;28;99435;-73
2022/01/01 03:01:27;;;;;;;1999.90;999.90;;;;;;;7.49;62.87;101591.22;4909871;28;97867;-74
2022/01/01 03:03:55;;;;;;;1999.90;999.90;;;;;;;7.48;62.93;101600.91;4925081;28;97817;-74
2022/01/01 03:06:28;;;;;;;1999.90;999.90;;;;;;;7.45;62.78;101600.78;4901116;28;96726;-76
2022/01/01 03:08:56;;;;;;;1999.90;999.90;;;;;;;7.45;62.89;101619.31;4918673;28;97669;-75
2022/01/01 03:11:24;;;;;;;1999.90;999.90;;;;;;;7.47;62.75;101624.69;4921738;28;98951;-76
2022/01/01 03:13:53;;;;;;;1999.90;999.90;;;;;;;7.47;62.81;101633.53;4904424;28;96917;-74
2022/01/01 03:16:21;;;;;;;1999.90;999.90;;;;;;;7.44;62.82;101625.44;4909027;28;99683;-74
2022/01/01 03:18:49;;;;;;;1999.90;999.90;;;;;;;7.47;62.85;101637.91;4905470;28;97729;-75
2022/01/01 03:21:17;;;;;;;1999.90;999.90;;;;;;;7.47;62.82;101643.22;4908323;28;99299;-75
2022/01/01 03:23:44;;;;;;;1999.90;999.90;;;;;;;7.49;62.90;101634.47;4927280;28;97143;-75
2022/01/01 03:26:12;;;;;;;1999.90;999.90;;;;;;;7.48;62.92;101630.03;4907083;28;96879;-74
2022/01/01 03:28:40;;;;;;;1999.90;999.90;;;;;;;7.51;62.72;101648.72;4924807;28;97482;-74
2022/01/01 03:31:09;;;;;;;1999.90;999.90;;;;;;;7.50;62.74;101636.31;4891191;28;99495;-74
2022/01/01 03:33:37;;;;;;;1999.90;999.90;;;;;;;7.52;62.58;101639.94;4929029;28;96792;-74
2022/01/01 03:36:05;;;;;;;1999.90;999.90;;;;;;;7.51;62.84;101638.13;4924178;28;96701;-76
2022/01/01 03:38:33;;;;;;;1999.90;999.90;;;;;;;7.51;62.81;101632.81;4925337;28;97742;-74
2022/01/01 03:41:01;;;;;;;1999.90;999.90;;;;;;;7.51;62.68;101650.47;4920302;28;97976;-78
2022/01/01 03:43:29;;;;;;;1999.90;999.90;;;;;;;7.51;62.87;101643.41;4930200;28;96835;-74
2022/01/01 03:45:56;;;;;;;1999.90;999.90;;;;;;;7.51;62.73;101653.13;4903843;28;98318;-76
2022/01/01 03:48:26;;;;;;;1999.90;999.90;;;;;;;7.51;62.85;101637.22;4928834;28;98500;-75
2022/01/01 03:50:53;;;;;;;1999.90;999.90;;;;;;;7.49;62.54;101637.13;4924456;28;97939;-74
2022/01/01 03:53:22;;;;;;;1999.90;999.90;;;;;;;7.51;62.59;101638.13;4912517;28;96838;-74
2022/01/01 03:55:49;;;;;;;1999.90;999.90;;;;;;;7.49;62.79;101637.13;4927612;28;96882;-75
2022/01/01 03:58:17;;;;;;;1999.90;999.90;;;;;;;7.50;62.75;101632.75;4932674;28;97202;-75
2022/01/01 04:00:45;;;;;;;1999.90;999.90;;;;;;;7.49;62.70;101629.19;4927767;28;98678;-75
2022/01/01 04:03:16;;;;;;;1999.90;999.90;;;;;;;7.51;62.73;101629.28;4914971;28;96874;-74
2022/01/01 04:05:46;;;;;;;1999.90;999.90;;;;;;;7.49;62.83;101644.19;4902312;28;97364;-75
2022/01/01 04:08:15;;;;;;;1999.90;999.90;;;;;;;7.51;62.69;101635.47;4912459;28;100375;-74
2022/01/01 04:10:42;;;;;;;1999.90;999.90;;;;;;;7.48;62.65;101635.34;4929036;28;100707;-76
2022/01/01 04:13:11;;;;;;;1999.90;999.90;;;;;;;7.49;62.96;101638.91;4895490;28;99004;-74
2022/01/01 04:15:41;;;;;;;1999.90;999.90;;;;;;;7.50;62.82;101636.31;4915153;28;96867;-75
2022/01/01 04:18:12;;;;;;;1999.90;999.90;;;;;;;7.49;62.75;101641.53;4927602;28;98501;-75
2022/01/01 04:20:41;;;;;;;1999.90;999.90;;;;;;;7.49;62.50;101645.06;4927108;28;98699;-75
2022/01/01 04:23:11;;;;;;;1999.90;999.90;;;;;;;7.49;62.82;101634.47;4926491;28;97105;-75
2022/01/01 04:25:39;;;;;;;1999.90;999.90;;;;;;;7.50;62.84;101636.31;4922291;28;96835;-74
2022/01/01 04:28:07;;;;;;;1999.90;999.90;;;;;;;7.53;62.64;101641.75;4906534;28;98576;-75
2022/01/01 04:30:34;;;;;;;1999.90;999.90;;;;;;;7.53;62.57;101647.03;4907451;28;100471;-75
2022/01/01 04:33:02;;;;;;;1999.90;999.90;;;;;;;7.53;62.62;101651.47;4925296;28;97334;-75
2022/01/01 04:35:30;;;;;;;1999.90;999.90;;;;;;;7.52;62.50;101645.25;4907584;28;96847;-75
2022/01/01 04:37:58;;;;;;;1999.90;999.90;;;;;;;7.52;62.55;101641.69;4923011;28;98126;-74
2022/01/01 04:40:27;;;;;;;1999.90;999.90;;;;;;;7.52;62.36;101639.94;4907273;28;100105;-73
2022/01/01 04:42:55;;;;;;;1999.90;999.90;;;;;;;7.53;62.60;101644.41;4926559;28;97315;-75
2022/01/01 04:45:22;;;;;;;1999.90;999.90;;;;;;;7.55;62.37;101645.38;4923877;28;96951;-73
2022/01/01 04:47:50;;;;;;;1999.90;999.90;;;;;;;7.53;62.53;101636.44;4908729;28;99341;-74
2022/01/01 04:50:18;;;;;;;1999.90;999.90;;;;;;;7.54;62.57;101643.59;4929420;28;97751;-74
2022/01/01 04:52:46;;;;;;;1999.90;999.90;;;;;;;7.54;62.34;101647.97;4926682;28;100269;-73
2022/01/01 04:55:13;;;;;;;1999.90;999.90;;;;;;;7.51;62.55;101646.06;4893571;28;96868;-75
2022/01/01 04:57:42;;;;;;;1999.90;999.90;;;;;;;7.52;62.48;101666.44;4925103;28;98817;-75
2022/01/01 05:00:11;;;;;;;1999.90;999.90;;;;;;;7.53;62.28;101677.94;4931293;28;97682;-75
2022/01/01 05:02:39;;;;;;;1999.90;999.90;;;;;;;7.53;62.46;101675.28;4924706;28;97475;-74
2022/01/01 05:05:08;;;;;;;1999.90;999.90;;;;;;;7.55;62.42;101677.16;4917363;28;99722;-75
2022/01/01 05:07:36;;;;;;;1999.90;999.90;;;;;;;7.51;62.33;101669.91;4923736;28;97505;-76
2022/01/01 05:10:05;;;;;;;1999.90;999.90;;;;;;;7.52;62.55;101677.03;4923167;28;97558;-74
2022/01/01 05:12:33;;;;;;;1999.90;999.90;;;;;;;7.52;62.58;101687.63;4919893;28;96988;-74
2022/01/01 05:15:02;;;;;;;1999.90;999.90;;;;;;;7.52;62.31;101694.66;4911512;28;98044;-74
2022/01/01 05:17:29;;;;;;;1999.90;999.90;;;;;;;7.53;62.41;101686.78;4927249;28;98774;-73
2022/01/01 05:20:01;;;;;;;1999.90;999.90;;;;;;;7.56;62.39;101697.53;4904444;28;98150;-74
2022/01/01 05:22:29;;;;;;;1999.90;999.90;;;;;;;7.57;62.23;101690.47;4913465;28;96841;-74
2022/01/01 05:24:59;;;;;;;1999.90;999.90;;;;;;;7.56;62.35;101709.84;4924700;28;97024;-74
2022/01/01 05:27:27;;;;;;;1999.90;999.90;;;;;;;7.52;62.09;101698.22;4928303;28;99026;-73
2022/01/01 05:29:55;;;;;;;1999.90;999.90;;;;;;;7.54;62.27;101693.91;4925740;28;97606;-73
2022/01/01 05:32:24;;;;;;;1999.90;999.90;;;;;;;7.50;62.32;101691.94;4927944;28;97432;-74
2022/01/01 05:34:52;;;;;;;1999.90;999.90;;;;;;;7.50;62.29;101691.94;4928382;28;97724;-74
2022/01/01 05:37:19;;;;;;;1999.90;999.90;;;;;;;7.50;62.22;101688.38;4925502;28;98034;-73
2022/01/01 05:39:47;;;;;;;1999.90;999.90;;;;;;;7.52;62.27;101698.22;4924984;28;97563;-73
2022/01/01 05:42:15;;;;;;;1999.90;999.90;;;;;;;7.53;62.22;101699.13;4924904;28;97133;-74
2022/01/01 05:44:42;;;;;;;1999.90;999.90;;;;;;;7.50;62.32;101699.88;4922103;28;97881;-74
2022/01/01 05:47:10;;;;;;;1999.90;999.90;;;;;;;7.52;62.15;101698.22;4904740;28;97760;-75
2022/01/01 05:49:39;;;;;;;1999.90;999.90;;;;;;;7.53;61.97;101717.66;4922423;28;99547;-74
2022/01/01 05:52:08;;;;;;;1999.90;999.90;;;;;;;7.52;62.11;101719.41;4925885;28;97034;-74
2022/01/01 05:54:36;;;;;;;1999.90;999.90;;;;;;;7.53;62.21;101722.97;4906375;28;97219;-74
2022/01/01 05:57:05;;;;;;;1999.90;999.90;;;;;;;7.56;62.22;101729.31;4929375;28;97743;-75
2022/01/01 05:59:33;;;;;;;1999.90;999.90;;;;;;;7.57;62.01;101731.13;4923719;28;97572;-75
2022/01/01 06:02:01;;;;;;;1999.90;999.90;;;;;;;7.61;61.85;101738.38;4933243;28;96713;-74
2022/01/01 06:04:29;;;;;;;1999.90;999.90;;;;;;;7.63;61.97;101725.22;4923412;28;97000;-75
2022/01/01 06:06:59;;;;;;;1999.90;999.90;;;;;;;7.64;61.93;101727.00;4925348;28;97732;-74
2022/01/01 06:09:26;;;;;;;1999.90;999.90;;;;;;;7.66;62.00;101725.34;4904650;28;99277;-74
2022/01/01 06:11:54;;;;;;;1999.90;999.90;;;;;;;7.66;62.02;101728.91;4910248;28;96587;-74
2022/01/01 06:14:22;;;;;;;1999.90;999.90;;;;;;;7.68;61.90;101719.28;4925177;28;98206;-75
2022/01/01 06:16:50;;;;;;;1999.90;999.90;;;;;;;7.69;61.75;101730.81;4904878;28;98239;-74
2022/01/01 06:19:18;;;;;;;1999.90;999.90;;;;;;;7.69;61.91;101734.34;4930342;28;96729;-74
2022/01/01 06:21:45;;;;;;;1999.90;999.90;;;;;;;7.66;61.92;101728.00;4931963;28;96695;-76
2022/01/01 06:24:15;;;;;;;1999.90;999.90;;;;;;;7.67;61.62;101736.03;4932189;28;98303;-74
2022/01/01 06:26:42;;;;;;;1999.90;999.90;;;;;;;7.66;61.67;101736.84;4928615;28;98737;-74
2022/01/01 06:29:10;;;;;;;1999.90;999.90;;;;;;;7.66;61.74;101731.56;4910782;28;98914;-75
2022/01/01 06:31:40;;;;;;;1999.90;999.90;;;;;;;7.66;61.71;101741.22;4923548;28;99308;-73
2022/01/01 06:34:09;;;;;;;1999.90;999.90;;;;;;;7.64;61.75;101743.81;4918654;28;96760;-75
2022/01/01 06:36:39;;;;;;;1999.90;999.90;;;;;;;7.65;61.63;101740.34;4910021;28;99341;-74
2022/01/01 06:39:07;;;;;;;1999.90;999.90;;;;;;;7.64;61.52;101748.19;4924909;28;99168;-74
2022/01/01 06:41:36;;;;;;;1999.90;999.90;;;;;;;7.62;61.55;101742.81;4911652;28;99098;-74
2022/01/01 06:44:07;;;;;;;1999.90;999.90;;;;;;;7.60;61.75;101747.13;4927118;28;96799;-74
2022/01/01 06:46:35;;;;;;;1999.90;999.90;;;;;;;7.58;61.72;101745.28;4934764;28;99761;-75
2022/01/01 06:49:03;;;;;;;1999.90;999.90;;;;;;;7.57;61.86;101751.38;4926799;28;98886;-73
2022/01/01 06:51:32;;;;;;;1999.90;999.90;;;;;;;7.56;61.70;101755.81;4910635;28;97824;-74
2022/01/01 06:53:59;;;;;;;1999.90;999.90;;;;;;;7.56;61.76;101765.47;4919805;28;97418;-74
2022/01/01 06:56:27;;;;;;;1999.90;999.90;;;;;;;7.54;61.84;101770.72;4899312;28;100947;-74
2022/01/01 06:58:59;;;;;;;1999.90;999.90;;;;;;;7.54;61.84;101772.44;4892263;28;100260;-73
2022/01/01 07:01:28;;;;;;;1999.90;999.90;;;;;;;7.53;62.20;101778.59;4899636;28;97219;-74
2022/01/01 07:03:56;;;;;;;1999.90;999.90;;;;;;;7.53;61.92;101774.16;4898217;28;96898;-74
2022/01/01 07:06:24;;;;;;;1999.90;999.90;;;;;;;7.53;61.94;101773.28;4918824;28;97563;-74
2022/01/01 07:08:52;;;;;;;1999.90;999.90;;;;;;;7.53;61.96;101784.75;4918255;28;97925;-74
2022/01/01 07:11:23;;;;;;;1999.90;999.90;;;;;;;7.54;61.85;101783.03;4920017;28;96857;-76
2022/01/01 07:13:50;;;;;;;1999.90;999.90;;;;;;;7.52;62.12;101788.25;4912664;28;97392;-74
2022/01/01 07:16:20;;;;;;;1999.90;999.90;;;;;;;7.51;61.98;101790.84;4906740;28;100464;-74
2022/01/01 07:18:48;;;;;;;1999.90;999.90;;;;;;;7.52;61.95;101795.28;4919760;28;98842;-75
2022/01/01 07:21:16;;;;;;;1999.90;999.90;;;;;;;7.51;62.03;101801.44;4901641;28;99477;-76
2022/01/01 07:23:43;;;;;;;1999.90;999.90;;;;;;;7.49;61.91;101808.38;4909521;28;96851;-76
2022/01/01 07:26:11;;;;;;;1999.90;999.90;;;;;;;7.46;62.14;101806.47;4926171;28;98648;-73
2022/01/01 07:28:39;;;;;;;1999.90;999.90;;;;;;;7.48;61.92;101817.16;4928422;28;99679;-74
2022/01/01 07:31:07;;;;;;;1999.90;999.90;;;;;;;7.48;61.93;101817.16;4928646;28;97200;-74
2022/01/01 07:33:36;;;;;;;1999.90;999.90;;;;;;;7.46;62.08;101809.13;4912220;28;97786;-75
2022/01/01 07:36:04;;;;;;;1999.90;999.90;;;;;;;7.45;61.96;101817.94;4915251;28;100405;-74
2022/01/01 07:38:32;;;;;;;1999.90;999.90;;;;;;;7.45;62.17;101817.94;4906680;28;99294;-80
2022/01/01 07:41:00;;;;;;;1999.90;999.90;;;;;;;7.44;62.11;101820.50;4922977;28;98666;-79
2022/01/01 07:43:29;;;;;;;1999.90;999.90;;;;;;;7.43;61.88;101822.22;4920056;28;97140;-74
2022/01/01 07:45:57;;;;;;;1999.90;999.90;;;;;;;7.42;61.97;101823.03;4906970;28;100414;-76
2022/01/01 07:48:25;;;;;;;1999.90;999.90;;;;;;;7.43;61.83;101823.97;4903789;28;99301;-75
2022/01/01 07:50:54;;;;;;;1999.90;999.90;;;;;;;7.44;62.00;101836.41;4924584;28;97170;-77
2022/01/01 07:53:22;;;;;;;1999.90;999.90;;;;;;;7.44;62.20;101833.75;4905619;28;97280;-75
2022/01/01 07:55:50;;;;;;;1999.90;999.90;;;;;;;7.46;62.19;101835.63;4888801;28;99572;-75
2022/01/01 07:58:17;;;;;;;1999.90;999.90;;;;;;;7.48;61.97;101844.56;4913340;28;97570;-76
2022/01/01 08:00:45;;;;;;;1999.90;999.90;;;;;;;7.48;62.12;101846.28;4914454;28;97113;-75
2022/01/01 08:03:13;;;;;;;1999.90;999.90;;;;;;;7.46;61.93;101854.16;4898462;28;96934;-79
2022/01/01 08:05:41;;;;;;;1999.90;999.90;;;;;;;7.46;62.18;101848.84;4930225;28;99445;-76
2022/01/01 08:08:10;;;;;;;1999.90;999.90;;;;;;;7.48;61.92;101857.78;4908741;28;98731;-76
2022/01/01 08:10:39;;;;;;;1999.90;999.90;;;;;;;7.48;62.14;101849.84;4925447;28;96797;-75
2022/01/01 08:13:09;;;;;;;1999.90;999.90;;;;;;;7.49;62.01;101854.28;4890535;28;98952;-77
2022/01/01 08:15:36;;;;;;;1999.90;999.90;;;;;;;7.50;62.02;101861.44;4905671;28;99821;-73
2022/01/01 08:18:05;;;;;;;1999.90;999.90;;;;;;;7.51;62.06;101860.59;4885201;28;98855;-78
2022/01/01 08:20:38;;;;;;;1999.90;999.90;;;;;;;7.51;61.98;101859.69;4935489;28;97480;-75
2022/01/01 08:23:06;;;;;;;1999.90;999.90;;;;;;;7.51;61.81;101865.88;4896372;28;96990;-79
2022/01/01 08:25:35;;;;;;;1999.90;999.90;;;;;;;7.53;61.98;101873.94;4923999;28;98706;-77
2022/01/01 08:28:03;;;;;;;1999.90;999.90;;;;;;;7.55;61.79;101881.09;4884967;28;99186;-76
2022/01/01 08:30:31;;;;;;;1999.90;999.90;;;;;;;7.55;61.99;101883.75;4921436;28;98764;-75
2022/01/01 08:33:01;;;;;;;1999.90;999.90;;;;;;;7.58;61.89;101885.66;4920338;28;96818;-76
2022/01/01 08:35:30;;;;;;;1999.90;999.90;;;;;;;7.57;61.98;101890.03;4918062;28;97779;-76
2022/01/01 08:37:58;;;;;;;1999.90;999.90;;;;;;;7.59;61.77;101892.75;4901420;28;97584;-75
2022/01/01 08:40:26;;;;;;;1999.90;999.90;;;;;;;7.60;61.73;101891.94;4908053;28;98371;-77
2022/01/01 08:42:55;;;;;;;1999.90;999.90;;;;;;;7.57;61.88;101897.97;4901454;28;97021;-78
2022/01/01 08:45:24;;;;;;;1999.90;999.90;;;;;;;7.57;61.70;101892.69;4916240;28;99320;-77
2022/01/01 08:47:52;;;;;;;1999.90;999.90;;;;;;;7.55;61.86;101893.44;4899422;28;100489;-76
2022/01/01 08:50:19;;;;;;;1999.90;999.90;;;;;;;7.55;61.84;101896.06;4909544;28;98866;-75
2022/01/01 08:52:48;;;;;;;1999.90;999.90;;;;;;;7.55;61.94;101898.72;4906101;28;96820;-76
2022/01/01 08:55:15;;;;;;;1999.90;999.90;;;;;;;7.53;62.09;101892.47;4911134;28;99209;-76
2022/01/01 08:57:43;;;;;;;1999.90;999.90;;;;;;;7.54;61.94;101889.91;4911795;28;98045;-76
2022/01/01 09:00:13;;;;;;;1999.90;999.90;;;;;;;7.54;61.82;101891.63;4932289;28;101668;-75
2022/01/01 09:02:42;;;;;;;1999.90;999.90;;;;;;;7.57;61.95;101900.63;4907817;28;99002;-76
2022/01/01 09:05:10;;;;;;;1999.90;999.90;;;;;;;7.57;61.79;101903.28;4897387;28;98978;-79
2022/01/01 09:07:38;;;;;;;1999.90;999.90;;;;;;;7.56;61.92;101906.78;4900376;28;99663;-73
2022/01/01 09:10:07;;;;;;;1999.90;999.90;;;;;;;7.56;61.82;101896.19;4920232;28;96764;-73
2022/01/01 09:12:35;;;;;;;1999.90;999.90;;;;;;;7.56;61.86;101898.84;4915645;28;97426;-76
2022/01/01 09:15:04;;;;;;;1999.90;999.90;;;;;;;7.61;61.82;101904.34;4915159;28;98288;-73
2022/01/01 09:17:33;;;;;;;1999.90;999.90;;;;;;;7.63;61.75;101903.59;4912799;28;98295;-76
2022/01/01 09:20:02;;;;;;;1999.90;999.90;;;;;;;7.66;61.68;101909.03;4909886;28;98292;-73
2022/01/01 09:22:30;;;;;;;1999.90;999.90;;;;;;;7.67;61.89;101913.53;4925096;28;98302;-75
2022/01/01 09:24:58;;;;;;;1999.90;999.90;;;;;;;7.67;61.72;101913.53;4909132;28;99417;-73
2022/01/01 09:27:26;;;;;;;1999.90;999.90;;;;;;;7.67;61.63;101915.25;4911089;28;102307;-76
2022/01/01 09:29:54;;;;;;;1999.90;999.90;;;;;;;7.66;61.70;101927.59;4925027;28;96845;-73
2022/01/01 09:32:21;;;;;;;1999.90;999.90;;;;;;;7.67;61.67;101923.22;4924776;28;97589;-76
2022/01/01 09:34:50;;;;;;;1999.90;999.90;;;;;;;7.70;61.56;101920.72;4929491;28;99400;-75
2022/01/01 09:37:18;;;;;;;1999.90;999.90;;;;;;;7.74;61.63;101926.25;4926945;28;98084;-76
2022/01/01 09:39:46;;;;;;;1999.90;999.90;;;;;;;7.76;61.60;101924.59;4911555;28;97799;-77
2022/01/01 09:42:14;;;;;;;1999.90;999.90;;;;;;;7.79;61.44;101927.38;4924331;28;97023;-78
2022/01/01 09:44:43;;;;;;;1999.90;999.90;;;;;;;7.79;61.69;101929.13;4925868;28;98501;-77
2022/01/01 09:47:11;;;;;;;1999.90;999.90;;;;;;;7.77;61.61;101928.13;4886644;28;100385;-77
2022/01/01 09:49:39;;;;;;;1999.90;999.90;;;;;;;7.78;61.42;101936.16;4890972;28;98141;-78
2022/01/01 09:52:09;;;;;;;1999.90;999.90;;;;;;;7.79;61.41;101943.28;4909011;28;96852;-75
2022/01/01 09:54:42;;;;;;;1999.90;999.90;;;;;;;7.80;61.54;101944.19;4889996;28;100570;-76
2022/01/01 09:57:11;;;;;;;1999.90;999.90;;;;;;;7.80;61.52;101947.75;4921993;28;99439;-76
2022/01/01 09:59:39;;;;;;;1999.90;999.90;;;;;;;7.81;61.57;101941.63;4907769;28;97612;-78
2022/01/01 10:02:07;;;;;;;1999.90;999.90;;;;;;;7.83;61.47;101945.28;4921469;28;97669;-76
2022/01/01 10:04:43;;;;;;;1999.90;999.90;;;;;;;7.82;61.47;101951.38;4919554;28;99871;-76
2022/01/01 10:07:13;;;;;;;1999.90;999.90;;;;;;;7.84;61.54;101944.41;4921270;28;98937;-75
2022/01/01 10:09:41;;;;;;;1999.90;999.90;;;;;;;7.85;61.49;101946.25;4919283;28;97726;-76
2022/01/01 10:12:12;;;;;;;1999.90;999.90;;;;;;;7.89;61.30;101952.63;4903173;28;98604;-77
2022/01/01 10:14:42;;;;;;;1999.90;999.90;;;;;;;7.92;61.23;101955.41;4888847;28;98796;-77
2022/01/01 10:17:20;;;;;;;1999.90;999.90;;;;;;;7.93;61.15;101951.94;4902072;28;100612;-75
2022/01/01 10:19:50;;;;;;;1999.90;999.90;;;;;;;7.95;61.38;101955.56;4890792;28;97799;-76
2022/01/01 10:22:21;;;;;;;1999.90;999.90;;;;;;;7.95;61.08;101956.47;4904844;28;97725;-75
2022/01/01 10:27:43;;;;;;;1999.90;999.90;;;;;;;7.95;61.26;101956.47;4903901;28;100090;-77
2022/01/01 10:30:18;;;;;;;1999.90;999.90;;;;;;;7.98;61.18;101956.63;4919859;28;98635;-75
2022/01/01 10:33:03;;;;;;;1999.90;999.90;;;;;;;7.97;61.11;101948.59;4921313;28;98503;-75
2022/01/01 10:35:36;;;;;;;1999.90;999.90;;;;;;;7.98;61.14;101956.63;4909324;28;99882;-77
2022/01/01 10:38:07;;;;;;;1999.90;999.90;;;;;;;7.98;61.10;101961.03;4903774;28;100299;-75
2022/01/01 10:40:35;;;;;;;1999.90;999.90;;;;;;;7.97;61.28;101959.19;4904692;28;98467;-77
2022/01/01 10:43:02;;;;;;;1999.90;999.90;;;;;;;7.97;60.99;101949.50;4906723;28;97260;-75
2022/01/01 10:45:32;;;;;;;1999.90;999.90;;;;;;;7.98;61.08;101953.97;4944223;28;98072;-77
2022/01/01 10:48:17;;;;;;;1999.90;999.90;;;;;;;7.98;60.96;101953.09;4937909;28;98135;-80
2022/01/01 10:50:46;;;;;;;1999.90;999.90;;;;;;;7.97;61.06;101956.53;4961293;28;97669;-80
2022/01/01 10:53:17;;;;;;;1999.90;999.90;;;;;;;8.00;60.96;101949.66;4949709;28;96710;-80
2022/01/01 10:55:46;;;;;;;1999.90;999.90;;;;;;;8.00;61.02;101962.91;4951273;28;97577;-78
2022/01/01 10:58:18;;;;;;;1999.90;999.90;;;;;;;7.99;61.04;101947.84;4915491;28;98921;-81
2022/01/01 11:00:46;;;;;;;1999.90;999.90;;;;;;;8.01;60.84;101951.50;4932683;28;97488;-77
2022/01/01 11:03:16;;;;;;;1999.90;999.90;;;;;;;8.01;61.08;101954.13;4915862;28;98688;-75
2022/01/01 11:05:47;;;;;;;1999.90;999.90;;;;;;;8.04;60.91;101956.00;4931492;28;97740;-76